sensor_id;sensor_type;location;lat;lon;timestamp;P1;durP1;ratioP1;P2;durP2;ratioP2
43311;SDS011;30041;48.300;16.352;2023-05-10T00:02:07;3.63;;;2.20;;
43311;SDS011;30041;48.300;16.352;2023-05-10T00:04:32;3.17;;;1.75;;
43311;SDS011;30041;48.300;16.352;2023-05-10T00:06:58;2.58;;;1.80;;
43311;SDS011;30041;48.300;16.352;2023-05-10T00:09:23;4.82;;;1.80;;
43311;SDS011;30041;48.300;16.352;2023-05-10T00:11:49;2.70;;;2.00;;
43311;SDS011;30041;48.300;16.352;2023-05-10T00:14:15;2.83;;;2.00;;
43311;SDS011;30041;48.300;16.352;2023-05-10T00:16:40;3.63;;;1.90;;
43311;SDS011;30041;48.300;16.352;2023-05-10T00:19:06;2.70;;;1.75;;
43311;SDS011;30041;48.300;16.352;2023-05-10T00:21:31;2.75;;;1.88;;
43311;SDS011;30041;48.300;16.352;2023-05-10T00:23:57;5.03;;;3.08;;
43311;SDS011;30041;48.300;16.352;2023-05-10T00:26:22;8.07;;;4.43;;
43311;SDS011;30041;48.300;16.352;2023-05-10T00:28:47;8.70;;;4.53;;
43311;SDS011;30041;48.300;16.352;2023-05-10T00:31:13;4.95;;;3.10;;
43311;SDS011;30041;48.300;16.352;2023-05-10T00:33:38;6.45;;;3.13;;
43311;SDS011;30041;48.300;16.352;2023-05-10T00:36:04;4.75;;;2.80;;
43311;SDS011;30041;48.300;16.352;2023-05-10T00:38:30;5.20;;;2.83;;
43311;SDS011;30041;48.300;16.352;2023-05-10T00:40:55;4.38;;;2.90;;
43311;SDS011;30041;48.300;16.352;2023-05-10T00:43:20;4.38;;;2.80;;
43311;SDS011;30041;48.300;16.352;2023-05-10T00:45:46;4.03;;;2.47;;
43311;SDS011;30041;48.300;16.352;2023-05-10T00:48:12;4.30;;;2.63;;
43311;SDS011;30041;48.300;16.352;2023-05-10T00:50:38;3.97;;;2.58;;
43311;SDS011;30041;48.300;16.352;2023-05-10T00:53:03;3.03;;;2.30;;
43311;SDS011;30041;48.300;16.352;2023-05-10T00:55:29;4.07;;;2.30;;
43311;SDS011;30041;48.300;16.352;2023-05-10T00:57:55;3.80;;;2.50;;
43311;SDS011;30041;48.300;16.352;2023-05-10T01:00:21;3.80;;;2.10;;
43311;SDS011;30041;48.300;16.352;2023-05-10T01:02:46;3.92;;;2.30;;
43311;SDS011;30041;48.300;16.352;2023-05-10T01:05:12;3.63;;;2.28;;
43311;SDS011;30041;48.300;16.352;2023-05-10T01:07:38;3.10;;;2.20;;
43311;SDS011;30041;48.300;16.352;2023-05-10T01:10:05;3.88;;;2.40;;
43311;SDS011;30041;48.300;16.352;2023-05-10T01:12:31;3.00;;;2.10;;
43311;SDS011;30041;48.300;16.352;2023-05-10T01:14:58;3.42;;;2.00;;
43311;SDS011;30041;48.300;16.352;2023-05-10T01:17:25;4.15;;;2.15;;
43311;SDS011;30041;48.300;16.352;2023-05-10T01:19:52;3.63;;;2.10;;
43311;SDS011;30041;48.300;16.352;2023-05-10T01:22:25;3.22;;;1.98;;
43311;SDS011;30041;48.300;16.352;2023-05-10T01:26:05;2.25;;;1.80;;
43311;SDS011;30041;48.300;16.352;2023-05-10T01:30:35;4.38;;;2.47;;
43311;SDS011;30041;48.300;16.352;2023-05-10T01:33:27;4.15;;;2.20;;
43311;SDS011;30041;48.300;16.352;2023-05-10T01:36:05;3.25;;;2.10;;
43311;SDS011;30041;48.300;16.352;2023-05-10T01:38:50;3.45;;;1.98;;
43311;SDS011;30041;48.300;16.352;2023-05-10T01:46:41;3.22;;;1.90;;
43311;SDS011;30041;48.300;16.352;2023-05-10T01:49:08;2.30;;;1.73;;
43311;SDS011;30041;48.300;16.352;2023-05-10T01:51:48;3.00;;;1.90;;
43311;SDS011;30041;48.300;16.352;2023-05-10T01:54:16;3.35;;;2.03;;
43311;SDS011;30041;48.300;16.352;2023-05-10T01:56:44;2.70;;;1.60;;
43311;SDS011;30041;48.300;16.352;2023-05-10T01:59:13;2.58;;;1.80;;
43311;SDS011;30041;48.300;16.352;2023-05-10T02:01:41;2.70;;;1.80;;
43311;SDS011;30041;48.300;16.352;2023-05-10T02:04:08;2.72;;;2.00;;
43311;SDS011;30041;48.300;16.352;2023-05-10T02:06:35;3.00;;;1.90;;
43311;SDS011;30041;48.300;16.352;2023-05-10T02:09:03;2.60;;;1.73;;
43311;SDS011;30041;48.300;16.352;2023-05-10T02:11:30;3.13;;;1.65;;
43311;SDS011;30041;48.300;16.352;2023-05-10T02:13:57;2.05;;;1.52;;
43311;SDS011;30041;48.300;16.352;2023-05-10T02:16:24;2.75;;;1.77;;
43311;SDS011;30041;48.300;16.352;2023-05-10T02:18:51;2.78;;;1.67;;
43311;SDS011;30041;48.300;16.352;2023-05-10T02:21:19;2.55;;;1.88;;
43311;SDS011;30041;48.300;16.352;2023-05-10T02:23:46;2.28;;;1.73;;
43311;SDS011;30041;48.300;16.352;2023-05-10T02:26:15;2.20;;;1.60;;
43311;SDS011;30041;48.300;16.352;2023-05-10T02:28:43;3.25;;;1.98;;
43311;SDS011;30041;48.300;16.352;2023-05-10T02:31:09;2.40;;;1.60;;
43311;SDS011;30041;48.300;16.352;2023-05-10T02:33:37;3.10;;;1.90;;
43311;SDS011;30041;48.300;16.352;2023-05-10T02:36:05;2.75;;;1.90;;
43311;SDS011;30041;48.300;16.352;2023-05-10T02:38:33;2.60;;;1.52;;
43311;SDS011;30041;48.300;16.352;2023-05-10T02:41:01;1.90;;;1.42;;
43311;SDS011;30041;48.300;16.352;2023-05-10T02:43:30;2.08;;;1.60;;
43311;SDS011;30041;48.300;16.352;2023-05-10T02:45:57;2.15;;;1.73;;
43311;SDS011;30041;48.300;16.352;2023-05-10T02:48:23;2.40;;;1.42;;
43311;SDS011;30041;48.300;16.352;2023-05-10T02:50:48;3.08;;;1.58;;
43311;SDS011;30041;48.300;16.352;2023-05-10T02:53:18;2.45;;;1.60;;
43311;SDS011;30041;48.300;16.352;2023-05-10T02:55:49;2.25;;;1.60;;
43311;SDS011;30041;48.300;16.352;2023-05-10T02:58:17;1.80;;;1.35;;
43311;SDS011;30041;48.300;16.352;2023-05-10T03:00:42;2.90;;;1.80;;
43311;SDS011;30041;48.300;16.352;2023-05-10T03:03:08;2.30;;;1.50;;
43311;SDS011;30041;48.300;16.352;2023-05-10T03:05:33;2.85;;;1.70;;
43311;SDS011;30041;48.300;16.352;2023-05-10T03:07:59;3.33;;;1.88;;
43311;SDS011;30041;48.300;16.352;2023-05-10T03:10:26;2.00;;;1.50;;
43311;SDS011;30041;48.300;16.352;2023-05-10T03:18:00;2.30;;;1.70;;
43311;SDS011;30041;48.300;16.352;2023-05-10T03:20:41;2.25;;;1.60;;
43311;SDS011;30041;48.300;16.352;2023-05-10T03:23:30;2.05;;;1.58;;
43311;SDS011;30041;48.300;16.352;2023-05-10T03:25:54;2.55;;;1.50;;
43311;SDS011;30041;48.300;16.352;2023-05-10T03:28:20;2.25;;;1.60;;
43311;SDS011;30041;48.300;16.352;2023-05-10T03:30:46;1.75;;;1.30;;
43311;SDS011;30041;48.300;16.352;2023-05-10T03:33:12;1.90;;;1.30;;
43311;SDS011;30041;48.300;16.352;2023-05-10T03:35:38;2.35;;;1.60;;
43311;SDS011;30041;48.300;16.352;2023-05-10T03:38:03;2.60;;;1.63;;
43311;SDS011;30041;48.300;16.352;2023-05-10T03:40:28;3.45;;;1.50;;
43311;SDS011;30041;48.300;16.352;2023-05-10T03:42:54;3.47;;;1.80;;
43311;SDS011;30041;48.300;16.352;2023-05-10T03:45:20;5.45;;;1.90;;
43311;SDS011;30041;48.300;16.352;2023-05-10T03:47:46;3.40;;;1.40;;
43311;SDS011;30041;48.300;16.352;2023-05-10T03:50:11;1.85;;;1.42;;
43311;SDS011;30041;48.300;16.352;2023-05-10T03:52:37;2.65;;;1.60;;
43311;SDS011;30041;48.300;16.352;2023-05-10T03:55:02;3.85;;;1.55;;
43311;SDS011;30041;48.300;16.352;2023-05-10T03:57:28;2.97;;;1.33;;
43311;SDS011;30041;48.300;16.352;2023-05-10T03:59:53;3.17;;;1.45;;
43311;SDS011;30041;48.300;16.352;2023-05-10T04:02:19;3.17;;;2.10;;
43311;SDS011;30041;48.300;16.352;2023-05-10T04:04:44;3.05;;;1.70;;
43311;SDS011;30041;48.300;16.352;2023-05-10T04:07:09;3.10;;;1.70;;
43311;SDS011;30041;48.300;16.352;2023-05-10T04:09:35;4.35;;;1.52;;
43311;SDS011;30041;48.300;16.352;2023-05-10T04:12:00;4.05;;;1.70;;
43311;SDS011;30041;48.300;16.352;2023-05-10T04:14:26;4.32;;;1.73;;
43311;SDS011;30041;48.300;16.352;2023-05-10T04:16:51;2.67;;;1.55;;
43311;SDS011;30041;48.300;16.352;2023-05-10T04:19:17;2.92;;;1.38;;
43311;SDS011;30041;48.300;16.352;2023-05-10T04:21:42;2.67;;;1.40;;
43311;SDS011;30041;48.300;16.352;2023-05-10T04:24:07;2.97;;;1.52;;
43311;SDS011;30041;48.300;16.352;2023-05-10T04:26:33;4.20;;;1.60;;
43311;SDS011;30041;48.300;16.352;2023-05-10T04:28:58;4.90;;;1.60;;
43311;SDS011;30041;48.300;16.352;2023-05-10T04:31:24;6.53;;;1.90;;
43311;SDS011;30041;48.300;16.352;2023-05-10T04:33:49;5.72;;;1.67;;
43311;SDS011;30041;48.300;16.352;2023-05-10T04:36:15;2.45;;;1.48;;
43311;SDS011;30041;48.300;16.352;2023-05-10T04:38:40;7.75;;;1.67;;
43311;SDS011;30041;48.300;16.352;2023-05-10T04:41:09;2.88;;;1.55;;
43311;SDS011;30041;48.300;16.352;2023-05-10T04:43:36;3.55;;;1.50;;
43311;SDS011;30041;48.300;16.352;2023-05-10T04:46:02;5.40;;;1.60;;
43311;SDS011;30041;48.300;16.352;2023-05-10T04:48:28;3.20;;;1.48;;
43311;SDS011;30041;48.300;16.352;2023-05-10T04:50:54;5.00;;;1.90;;
43311;SDS011;30041;48.300;16.352;2023-05-10T04:53:19;4.10;;;1.65;;
43311;SDS011;30041;48.300;16.352;2023-05-10T04:55:45;4.65;;;1.50;;
43311;SDS011;30041;48.300;16.352;2023-05-10T04:58:11;6.20;;;1.40;;
43311;SDS011;30041;48.300;16.352;2023-05-10T05:00:36;4.18;;;1.60;;
43311;SDS011;30041;48.300;16.352;2023-05-10T05:03:01;7.80;;;2.00;;
43311;SDS011;30041;48.300;16.352;2023-05-10T05:05:27;5.82;;;1.58;;
43311;SDS011;30041;48.300;16.352;2023-05-10T05:07:52;5.00;;;1.65;;
43311;SDS011;30041;48.300;16.352;2023-05-10T05:10:18;2.60;;;1.65;;
43311;SDS011;30041;48.300;16.352;2023-05-10T05:12:43;4.32;;;1.60;;
43311;SDS011;30041;48.300;16.352;2023-05-10T05:15:09;3.33;;;1.40;;
43311;SDS011;30041;48.300;16.352;2023-05-10T05:17:35;2.50;;;1.40;;
43311;SDS011;30041;48.300;16.352;2023-05-10T05:20:01;3.97;;;1.52;;
43311;SDS011;30041;48.300;16.352;2023-05-10T05:22:26;6.88;;;2.72;;
43311;SDS011;30041;48.300;16.352;2023-05-10T05:24:52;12.35;;;3.70;;
43311;SDS011;30041;48.300;16.352;2023-05-10T05:27:17;8.50;;;3.75;;
43311;SDS011;30041;48.300;16.352;2023-05-10T05:29:43;8.05;;;3.28;;
43311;SDS011;30041;48.300;16.352;2023-05-10T05:32:08;7.55;;;2.80;;
43311;SDS011;30041;48.300;16.352;2023-05-10T05:34:34;6.85;;;2.70;;
43311;SDS011;30041;48.300;16.352;2023-05-10T05:36:59;6.30;;;2.83;;
43311;SDS011;30041;48.300;16.352;2023-05-10T05:39:25;5.32;;;2.75;;
43311;SDS011;30041;48.300;16.352;2023-05-10T05:41:50;5.78;;;2.88;;
43311;SDS011;30041;48.300;16.352;2023-05-10T05:44:15;5.30;;;2.88;;
43311;SDS011;30041;48.300;16.352;2023-05-10T05:46:41;7.05;;;3.20;;
43311;SDS011;30041;48.300;16.352;2023-05-10T05:49:06;5.72;;;2.67;;
43311;SDS011;30041;48.300;16.352;2023-05-10T05:51:32;7.40;;;2.38;;
43311;SDS011;30041;48.300;16.352;2023-05-10T05:53:57;8.02;;;2.65;;
43311;SDS011;30041;48.300;16.352;2023-05-10T05:56:23;4.15;;;1.98;;
43311;SDS011;30041;48.300;16.352;2023-05-10T05:58:48;5.55;;;2.25;;
43311;SDS011;30041;48.300;16.352;2023-05-10T06:01:14;5.38;;;2.35;;
43311;SDS011;30041;48.300;16.352;2023-05-10T06:03:39;10.63;;;2.67;;
43311;SDS011;30041;48.300;16.352;2023-05-10T06:06:05;7.28;;;2.38;;
43311;SDS011;30041;48.300;16.352;2023-05-10T06:08:30;8.65;;;2.20;;
43311;SDS011;30041;48.300;16.352;2023-05-10T06:10:55;11.27;;;2.10;;
43311;SDS011;30041;48.300;16.352;2023-05-10T06:13:21;9.38;;;2.30;;
43311;SDS011;30041;48.300;16.352;2023-05-10T06:15:46;7.00;;;1.80;;
43311;SDS011;30041;48.300;16.352;2023-05-10T06:18:12;9.35;;;1.90;;
43311;SDS011;30041;48.300;16.352;2023-05-10T06:20:37;8.75;;;2.17;;
43311;SDS011;30041;48.300;16.352;2023-05-10T06:23:02;2.75;;;1.90;;
43311;SDS011;30041;48.300;16.352;2023-05-10T06:25:28;22.08;;;4.05;;
43311;SDS011;30041;48.300;16.352;2023-05-10T06:27:54;5.97;;;1.90;;
43311;SDS011;30041;48.300;16.352;2023-05-10T06:30:19;14.35;;;3.55;;
43311;SDS011;30041;48.300;16.352;2023-05-10T06:32:45;6.22;;;3.60;;
43311;SDS011;30041;48.300;16.352;2023-05-10T06:35:10;6.90;;;3.42;;
43311;SDS011;30041;48.300;16.352;2023-05-10T06:37:36;15.50;;;4.43;;
43311;SDS011;30041;48.300;16.352;2023-05-10T06:40:01;13.25;;;4.32;;
43311;SDS011;30041;48.300;16.352;2023-05-10T06:42:27;31.27;;;4.00;;
43311;SDS011;30041;48.300;16.352;2023-05-10T06:44:52;19.48;;;3.50;;
43311;SDS011;30041;48.300;16.352;2023-05-10T06:47:18;12.98;;;2.60;;
43311;SDS011;30041;48.300;16.352;2023-05-10T06:49:43;6.00;;;2.10;;
43311;SDS011;30041;48.300;16.352;2023-05-10T06:52:09;13.23;;;2.70;;
43311;SDS011;30041;48.300;16.352;2023-05-10T06:54:34;10.60;;;2.88;;
43311;SDS011;30041;48.300;16.352;2023-05-10T06:57:00;13.32;;;3.13;;
43311;SDS011;30041;48.300;16.352;2023-05-10T06:59:25;10.20;;;2.95;;
43311;SDS011;30041;48.300;16.352;2023-05-10T07:01:51;9.77;;;2.90;;
43311;SDS011;30041;48.300;16.352;2023-05-10T07:04:16;12.80;;;2.72;;
43311;SDS011;30041;48.300;16.352;2023-05-10T07:06:42;16.17;;;3.60;;
43311;SDS011;30041;48.300;16.352;2023-05-10T07:09:07;16.58;;;3.65;;
43311;SDS011;30041;48.300;16.352;2023-05-10T07:11:33;16.27;;;3.75;;
43311;SDS011;30041;48.300;16.352;2023-05-10T07:13:58;21.00;;;3.83;;
43311;SDS011;30041;48.300;16.352;2023-05-10T07:16:24;11.95;;;3.67;;
43311;SDS011;30041;48.300;16.352;2023-05-10T07:18:49;11.88;;;3.08;;
43311;SDS011;30041;48.300;16.352;2023-05-10T07:21:14;13.13;;;3.00;;
43311;SDS011;30041;48.300;16.352;2023-05-10T07:23:40;14.60;;;2.80;;
43311;SDS011;30041;48.300;16.352;2023-05-10T07:26:05;11.25;;;2.70;;
43311;SDS011;30041;48.300;16.352;2023-05-10T07:28:31;9.38;;;2.58;;
43311;SDS011;30041;48.300;16.352;2023-05-10T07:30:56;12.63;;;2.63;;
43311;SDS011;30041;48.300;16.352;2023-05-10T07:33:22;8.15;;;2.50;;
43311;SDS011;30041;48.300;16.352;2023-05-10T07:35:47;8.85;;;2.38;;
43311;SDS011;30041;48.300;16.352;2023-05-10T07:38:13;9.32;;;2.42;;
43311;SDS011;30041;48.300;16.352;2023-05-10T07:40:39;6.93;;;2.25;;
43311;SDS011;30041;48.300;16.352;2023-05-10T07:43:04;8.77;;;2.22;;
43311;SDS011;30041;48.300;16.352;2023-05-10T07:45:30;6.75;;;2.17;;
43311;SDS011;30041;48.300;16.352;2023-05-10T07:47:55;9.23;;;2.38;;
43311;SDS011;30041;48.300;16.352;2023-05-10T07:50:21;7.45;;;2.25;;
43311;SDS011;30041;48.300;16.352;2023-05-10T07:52:46;6.88;;;2.25;;
43311;SDS011;30041;48.300;16.352;2023-05-10T07:55:12;9.82;;;2.28;;
43311;SDS011;30041;48.300;16.352;2023-05-10T07:57:38;6.28;;;2.30;;
43311;SDS011;30041;48.300;16.352;2023-05-10T08:00:04;5.78;;;2.13;;
43311;SDS011;30041;48.300;16.352;2023-05-10T08:02:30;5.10;;;1.90;;
43311;SDS011;30041;48.300;16.352;2023-05-10T08:04:55;3.63;;;1.90;;
43311;SDS011;30041;48.300;16.352;2023-05-10T08:07:21;5.82;;;2.20;;
43311;SDS011;30041;48.300;16.352;2023-05-10T08:09:46;5.22;;;2.08;;
43311;SDS011;30041;48.300;16.352;2023-05-10T08:12:12;5.15;;;2.05;;
43311;SDS011;30041;48.300;16.352;2023-05-10T08:14:37;5.75;;;2.08;;
43311;SDS011;30041;48.300;16.352;2023-05-10T08:17:03;5.00;;;2.25;;
43311;SDS011;30041;48.300;16.352;2023-05-10T08:19:29;3.60;;;1.85;;
43311;SDS011;30041;48.300;16.352;2023-05-10T08:21:54;6.55;;;2.10;;
43311;SDS011;30041;48.300;16.352;2023-05-10T08:24:20;3.78;;;1.73;;
43311;SDS011;30041;48.300;16.352;2023-05-10T08:26:46;4.22;;;2.22;;
43311;SDS011;30041;48.300;16.352;2023-05-10T08:29:11;6.53;;;2.20;;
43311;SDS011;30041;48.300;16.352;2023-05-10T08:31:36;7.00;;;2.00;;
43311;SDS011;30041;48.300;16.352;2023-05-10T08:34:02;5.15;;;1.98;;
43311;SDS011;30041;48.300;16.352;2023-05-10T08:36:27;8.45;;;2.25;;
43311;SDS011;30041;48.300;16.352;2023-05-10T08:38:53;3.22;;;1.80;;
43311;SDS011;30041;48.300;16.352;2023-05-10T08:41:19;6.78;;;2.13;;
43311;SDS011;30041;48.300;16.352;2023-05-10T08:43:45;4.82;;;2.20;;
43311;SDS011;30041;48.300;16.352;2023-05-10T08:46:10;5.78;;;2.00;;
43311;SDS011;30041;48.300;16.352;2023-05-10T08:48:39;5.97;;;2.25;;
43311;SDS011;30041;48.300;16.352;2023-05-10T08:51:06;4.90;;;1.88;;
43311;SDS011;30041;48.300;16.352;2023-05-10T08:53:33;9.80;;;2.10;;
43311;SDS011;30041;48.300;16.352;2023-05-10T08:56:01;5.00;;;2.25;;
43311;SDS011;30041;48.300;16.352;2023-05-10T08:58:27;3.88;;;1.92;;
43311;SDS011;30041;48.300;16.352;2023-05-10T09:00:53;9.60;;;1.80;;
43311;SDS011;30041;48.300;16.352;2023-05-10T09:03:19;11.18;;;2.38;;
43311;SDS011;30041;48.300;16.352;2023-05-10T09:05:45;9.70;;;2.50;;
43311;SDS011;30041;48.300;16.352;2023-05-10T09:08:12;5.45;;;2.08;;
43311;SDS011;30041;48.300;16.352;2023-05-10T09:10:38;5.97;;;1.88;;
43311;SDS011;30041;48.300;16.352;2023-05-10T09:13:04;5.03;;;1.70;;
43311;SDS011;30041;48.300;16.352;2023-05-10T09:15:32;10.10;;;2.60;;
43311;SDS011;30041;48.300;16.352;2023-05-10T09:17:57;10.68;;;2.47;;
43311;SDS011;30041;48.300;16.352;2023-05-10T09:20:23;8.80;;;2.60;;
43311;SDS011;30041;48.300;16.352;2023-05-10T09:22:49;7.38;;;2.28;;
43311;SDS011;30041;48.300;16.352;2023-05-10T09:25:15;7.35;;;2.30;;
43311;SDS011;30041;48.300;16.352;2023-05-10T09:27:41;6.55;;;2.58;;
43311;SDS011;30041;48.300;16.352;2023-05-10T09:30:10;9.65;;;2.25;;
43311;SDS011;30041;48.300;16.352;2023-05-10T09:32:41;7.63;;;2.40;;
43311;SDS011;30041;48.300;16.352;2023-05-10T09:35:08;5.95;;;2.10;;
43311;SDS011;30041;48.300;16.352;2023-05-10T09:37:40;10.18;;;2.35;;
43311;SDS011;30041;48.300;16.352;2023-05-10T09:40:08;8.23;;;2.30;;
43311;SDS011;30041;48.300;16.352;2023-05-10T09:42:36;8.93;;;2.53;;
43311;SDS011;30041;48.300;16.352;2023-05-10T09:45:03;11.35;;;2.63;;
43311;SDS011;30041;48.300;16.352;2023-05-10T09:47:31;12.38;;;3.40;;
43311;SDS011;30041;48.300;16.352;2023-05-10T09:49:57;9.13;;;2.38;;
43311;SDS011;30041;48.300;16.352;2023-05-10T09:52:23;5.75;;;2.08;;
43311;SDS011;30041;48.300;16.352;2023-05-10T09:54:52;7.65;;;2.38;;
43311;SDS011;30041;48.300;16.352;2023-05-10T09:57:22;7.32;;;1.60;;
43311;SDS011;30041;48.300;16.352;2023-05-10T09:59:49;6.00;;;1.83;;
43311;SDS011;30041;48.300;16.352;2023-05-10T10:02:14;7.47;;;1.90;;
43311;SDS011;30041;48.300;16.352;2023-05-10T10:04:40;7.13;;;1.90;;
43311;SDS011;30041;48.300;16.352;2023-05-10T10:07:06;4.00;;;1.83;;
43311;SDS011;30041;48.300;16.352;2023-05-10T10:09:32;9.70;;;2.40;;
43311;SDS011;30041;48.300;16.352;2023-05-10T10:11:59;7.13;;;2.10;;
43311;SDS011;30041;48.300;16.352;2023-05-10T10:14:25;7.60;;;2.15;;
43311;SDS011;30041;48.300;16.352;2023-05-10T10:16:50;5.75;;;2.00;;
43311;SDS011;30041;48.300;16.352;2023-05-10T10:19:18;4.85;;;1.98;;
43311;SDS011;30041;48.300;16.352;2023-05-10T10:21:44;4.43;;;1.75;;
43311;SDS011;30041;48.300;16.352;2023-05-10T10:24:10;4.57;;;1.80;;
43311;SDS011;30041;48.300;16.352;2023-05-10T10:26:36;5.13;;;2.10;;
43311;SDS011;30041;48.300;16.352;2023-05-10T10:34:30;5.53;;;2.00;;
43311;SDS011;30041;48.300;16.352;2023-05-10T10:36:57;4.93;;;2.00;;
43311;SDS011;30041;48.300;16.352;2023-05-10T10:39:28;4.18;;;1.95;;
43311;SDS011;30041;48.300;16.352;2023-05-10T10:41:55;4.32;;;2.00;;
43311;SDS011;30041;48.300;16.352;2023-05-10T10:52:15;2.85;;;1.50;;
43311;SDS011;30041;48.300;16.352;2023-05-10T10:57:17;5.20;;;1.85;;
43311;SDS011;30041;48.300;16.352;2023-05-10T10:59:44;6.80;;;1.63;;
43311;SDS011;30041;48.300;16.352;2023-05-10T11:02:10;3.00;;;1.60;;
43311;SDS011;30041;48.300;16.352;2023-05-10T11:04:42;3.58;;;1.45;;
43311;SDS011;30041;48.300;16.352;2023-05-10T11:07:17;5.32;;;1.55;;
43311;SDS011;30041;48.300;16.352;2023-05-10T11:09:44;4.35;;;1.80;;
43311;SDS011;30041;48.300;16.352;2023-05-10T11:12:10;3.13;;;1.90;;
43311;SDS011;30041;48.300;16.352;2023-05-10T11:14:36;3.78;;;1.65;;
43311;SDS011;30041;48.300;16.352;2023-05-10T11:17:01;4.35;;;1.65;;
43311;SDS011;30041;48.300;16.352;2023-05-10T11:20:02;5.03;;;1.65;;
43311;SDS011;30041;48.300;16.352;2023-05-10T11:22:53;5.82;;;1.75;;
43311;SDS011;30041;48.300;16.352;2023-05-10T11:25:19;3.10;;;1.40;;
43311;SDS011;30041;48.300;16.352;2023-05-10T11:27:51;4.65;;;1.65;;
43311;SDS011;30041;48.300;16.352;2023-05-10T11:30:17;5.07;;;1.67;;
43311;SDS011;30041;48.300;16.352;2023-05-10T11:32:42;2.10;;;1.40;;
43311;SDS011;30041;48.300;16.352;2023-05-10T11:35:09;8.13;;;1.73;;
43311;SDS011;30041;48.300;16.352;2023-05-10T11:37:35;5.03;;;1.60;;
43311;SDS011;30041;48.300;16.352;2023-05-10T11:40:01;4.50;;;1.30;;
43311;SDS011;30041;48.300;16.352;2023-05-10T11:42:27;5.18;;;1.40;;
43311;SDS011;30041;48.300;16.352;2023-05-10T11:44:53;5.20;;;1.25;;
43311;SDS011;30041;48.300;16.352;2023-05-10T11:47:19;5.50;;;1.30;;
43311;SDS011;30041;48.300;16.352;2023-05-10T11:49:45;3.75;;;1.00;;
43311;SDS011;30041;48.300;16.352;2023-05-10T11:52:11;4.60;;;1.33;;
43311;SDS011;30041;48.300;16.352;2023-05-10T11:54:36;5.07;;;1.08;;
43311;SDS011;30041;48.300;16.352;2023-05-10T11:57:02;5.88;;;0.82;;
43311;SDS011;30041;48.300;16.352;2023-05-10T11:59:28;2.78;;;1.00;;
43311;SDS011;30041;48.300;16.352;2023-05-10T12:01:53;2.38;;;0.80;;
43311;SDS011;30041;48.300;16.352;2023-05-10T12:04:19;3.30;;;0.90;;
43311;SDS011;30041;48.300;16.352;2023-05-10T12:06:45;3.25;;;0.90;;
43311;SDS011;30041;48.300;16.352;2023-05-10T12:09:11;1.48;;;0.73;;
43311;SDS011;30041;48.300;16.352;2023-05-10T12:11:37;1.30;;;0.60;;
43311;SDS011;30041;48.300;16.352;2023-05-10T12:14:05;1.05;;;0.52;;
43311;SDS011;30041;48.300;16.352;2023-05-10T12:16:30;1.30;;;0.60;;
43311;SDS011;30041;48.300;16.352;2023-05-10T12:18:57;3.15;;;0.73;;
43311;SDS011;30041;48.300;16.352;2023-05-10T12:21:24;2.63;;;0.70;;
43311;SDS011;30041;48.300;16.352;2023-05-10T12:23:52;1.23;;;0.50;;
43311;SDS011;30041;48.300;16.352;2023-05-10T12:26:21;2.10;;;0.57;;
43311;SDS011;30041;48.300;16.352;2023-05-10T12:28:47;1.50;;;0.73;;
43311;SDS011;30041;48.300;16.352;2023-05-10T12:31:13;1.48;;;0.50;;
43311;SDS011;30041;48.300;16.352;2023-05-10T12:33:39;0.95;;;0.40;;
43311;SDS011;30041;48.300;16.352;2023-05-10T12:36:06;0.63;;;0.40;;
43311;SDS011;30041;48.300;16.352;2023-05-10T12:38:36;0.70;;;0.40;;
43311;SDS011;30041;48.300;16.352;2023-05-10T12:41:03;0.77;;;0.40;;
43311;SDS011;30041;48.300;16.352;2023-05-10T12:43:30;0.28;;;0.20;;
43311;SDS011;30041;48.300;16.352;2023-05-10T12:45:58;0.77;;;0.35;;
43311;SDS011;30041;48.300;16.352;2023-05-10T12:48:29;0.38;;;0.20;;
43311;SDS011;30041;48.300;16.352;2023-05-10T12:50:54;0.75;;;0.40;;
43311;SDS011;30041;48.300;16.352;2023-05-10T12:53:20;0.82;;;0.30;;
43311;SDS011;30041;48.300;16.352;2023-05-10T12:55:46;0.63;;;0.20;;
43311;SDS011;30041;48.300;16.352;2023-05-10T12:58:11;0.28;;;0.20;;
43311;SDS011;30041;48.300;16.352;2023-05-10T13:00:36;0.20;;;0.20;;
43311;SDS011;30041;48.300;16.352;2023-05-10T13:03:02;0.63;;;0.20;;
43311;SDS011;30041;48.300;16.352;2023-05-10T13:05:28;1.17;;;0.40;;
43311;SDS011;30041;48.300;16.352;2023-05-10T13:07:53;0.10;;;0.10;;
43311;SDS011;30041;48.300;16.352;2023-05-10T13:10:19;0.50;;;0.30;;
43311;SDS011;30041;48.300;16.352;2023-05-10T13:12:44;0.20;;;0.20;;
43311;SDS011;30041;48.300;16.352;2023-05-10T13:15:10;0.22;;;0.17;;
43311;SDS011;30041;48.300;16.352;2023-05-10T13:17:35;0.38;;;0.10;;
43311;SDS011;30041;48.300;16.352;2023-05-10T13:20:01;1.17;;;0.30;;
43311;SDS011;30041;48.300;16.352;2023-05-10T13:22:26;0.17;;;0.10;;
43311;SDS011;30041;48.300;16.352;2023-05-10T13:24:52;0.10;;;0.10;;
43311;SDS011;30041;48.300;16.352;2023-05-10T13:27:17;0.10;;;0.10;;
43311;SDS011;30041;48.300;16.352;2023-05-10T13:29:42;0.28;;;0.10;;
43311;SDS011;30041;48.300;16.352;2023-05-10T13:32:08;0.30;;;0.15;;
43311;SDS011;30041;48.300;16.352;2023-05-10T13:34:33;0.10;;;0.08;;
43311;SDS011;30041;48.300;16.352;2023-05-10T13:36:59;0.10;;;0.10;;
43311;SDS011;30041;48.300;16.352;2023-05-10T13:39:24;0.13;;;0.10;;
43311;SDS011;30041;48.300;16.352;2023-05-10T13:41:50;0.35;;;0.10;;
43311;SDS011;30041;48.300;16.352;2023-05-10T13:44:15;0.10;;;0.00;;
43311;SDS011;30041;48.300;16.352;2023-05-10T13:46:41;0.20;;;0.20;;
43311;SDS011;30041;48.300;16.352;2023-05-10T13:49:08;0.30;;;0.10;;
43311;SDS011;30041;48.300;16.352;2023-05-10T13:51:33;0.10;;;0.10;;
43311;SDS011;30041;48.300;16.352;2023-05-10T13:53:59;0.10;;;0.00;;
43311;SDS011;30041;48.300;16.352;2023-05-10T13:56:25;0.03;;;0.03;;
43311;SDS011;30041;48.300;16.352;2023-05-10T13:58:50;0.00;;;0.00;;
43311;SDS011;30041;48.300;16.352;2023-05-10T14:01:16;0.05;;;0.05;;
43311;SDS011;30041;48.300;16.352;2023-05-10T14:03:41;0.17;;;0.10;;
43311;SDS011;30041;48.300;16.352;2023-05-10T14:06:07;0.35;;;0.00;;
43311;SDS011;30041;48.300;16.352;2023-05-10T14:08:33;0.00;;;0.00;;
43311;SDS011;30041;48.300;16.352;2023-05-10T14:10:59;0.00;;;0.00;;
43311;SDS011;30041;48.300;16.352;2023-05-10T14:13:24;0.05;;;0.00;;
43311;SDS011;30041;48.300;16.352;2023-05-10T14:15:50;0.20;;;0.00;;
43311;SDS011;30041;48.300;16.352;2023-05-10T14:18:16;0.00;;;0.00;;
43311;SDS011;30041;48.300;16.352;2023-05-10T14:20:41;0.00;;;0.00;;
43311;SDS011;30041;48.300;16.352;2023-05-10T14:23:07;0.00;;;0.00;;
43311;SDS011;30041;48.300;16.352;2023-05-10T14:25:32;0.10;;;0.08;;
43311;SDS011;30041;48.300;16.352;2023-05-10T14:27:58;0.00;;;0.00;;
43311;SDS011;30041;48.300;16.352;2023-05-10T14:30:23;0.00;;;0.00;;
43311;SDS011;30041;48.300;16.352;2023-05-10T14:32:49;0.05;;;0.00;;
43311;SDS011;30041;48.300;16.352;2023-05-10T14:35:14;0.05;;;0.00;;
43311;SDS011;30041;48.300;16.352;2023-05-10T14:37:40;0.17;;;0.08;;
43311;SDS011;30041;48.300;16.352;2023-05-10T14:40:07;0.00;;;0.00;;
43311;SDS011;30041;48.300;16.352;2023-05-10T14:42:33;0.00;;;0.00;;
43311;SDS011;30041;48.300;16.352;2023-05-10T14:44:58;0.00;;;0.00;;
43311;SDS011;30041;48.300;16.352;2023-05-10T14:47:24;0.00;;;0.00;;
43311;SDS011;30041;48.300;16.352;2023-05-10T14:49:49;0.00;;;0.00;;
43311;SDS011;30041;48.300;16.352;2023-05-10T14:52:14;0.15;;;0.08;;
43311;SDS011;30041;48.300;16.352;2023-05-10T14:54:40;0.00;;;0.00;;
43311;SDS011;30041;48.300;16.352;2023-05-10T14:57:06;0.00;;;0.00;;
43311;SDS011;30041;48.300;16.352;2023-05-10T14:59:31;0.10;;;0.00;;